Time;durP1;ratioP1;P1;durP2;ratioP2;P2;SDS_P1;SDS_P2;PMS_P1;PMS_P2;Temp;Humidity;BMP_temperature;BMP_pressure;BME280_temperature;BME280_humidity;BME280_pressure;Samples;Min_cycle;Max_cycle;Signal;HPM_P1;HPM_P2
2022/10/05 00:00:25;;;;;;;3.90;2.00;;;20.50;67.00;;;;;;4995637;28;20038;-62
2022/10/05 00:02:51;;;;;;;5.22;1.95;;;20.50;66.90;;;;;;4995949;28;20486;-62
2022/10/05 00:05:29;;;;;;;4.57;2.10;;;20.50;66.90;;;;;;4979551;28;20034;-63
2022/10/05 00:07:56;;;;;;;4.03;1.90;;;20.50;66.90;;;;;;4996704;28;20502;-62
2022/10/05 00:10:22;;;;;;;3.10;1.70;;;20.50;66.90;;;;;;4995641;28;20486;-63
2022/10/05 00:12:47;;;;;;;3.35;1.90;;;20.50;66.90;;;;;;4979270;28;20046;-63
2022/10/05 00:15:15;;;;;;;5.07;1.90;;;20.50;66.90;;;;;;4996666;28;20053;-63
2022/10/05 00:17:41;;;;;;;6.10;2.15;;;20.50;66.90;;;;;;4978519;28;20406;-63
2022/10/05 00:20:35;;;;;;;3.97;1.95;;;20.50;66.90;;;;;;4996508;28;20474;-63
2022/10/05 00:23:01;;;;;;;3.55;2.35;;;20.50;66.90;;;;;;4994966;28;20050;-63
2022/10/05 00:25:26;;;;;;;3.92;2.05;;;20.50;66.90;;;;;;4978864;28;20842;-63
2022/10/05 00:27:59;;;;;;;3.47;2.28;;;20.50;66.90;;;;;;4979400;28;20398;-62
2022/10/05 00:30:26;;;;;;;4.38;2.03;;;20.40;66.80;;;;;;4995649;28;20050;-63
2022/10/05 00:32:51;;;;;;;5.10;2.40;;;20.50;66.90;;;;;;4978904;28;20047;-62
2022/10/05 00:35:17;;;;;;;3.50;1.88;;;20.50;66.90;;;;;;4995815;28;20058;-62
2022/10/05 00:37:43;;;;;;;6.30;2.67;;;20.50;66.90;;;;;;4995792;28;20478;-63
2022/10/05 00:40:35;;;;;;;7.05;2.25;;;20.40;66.80;;;;;;4995967;28;20039;-62
2022/10/05 00:43:19;;;;;;;3.63;1.83;;;20.50;66.80;;;;;;4979983;28;20057;-63
2022/10/05 00:45:50;;;;;;;4.22;1.92;;;20.50;66.90;;;;;;4995830;28;20046;-62
2022/10/05 00:48:21;;;;;;;4.80;2.20;;;20.40;66.80;;;;;;4978747;28;20058;-63
2022/10/05 00:51:03;;;;;;;3.47;1.95;;;20.40;66.90;;;;;;4978810;28;20108;-63
2022/10/05 00:53:56;;;;;;;4.78;1.77;;;20.40;66.80;;;;;;4995679;28;20046;-62
2022/10/05 00:56:53;;;;;;;4.32;1.98;;;20.40;66.80;;;;;;4995687;28;20391;-63
2022/10/05 00:59:27;;;;;;;4.38;2.00;;;20.40;66.80;;;;;;4994875;28;20136;-62
2022/10/05 01:01:56;;;;;;;4.78;2.10;;;20.40;66.80;;;;;;4995036;28;20133;-63
2022/10/05 01:04:44;;;;;;;4.45;1.98;;;20.40;66.80;;;;;;4995558;28;20101;-63
2022/10/05 01:07:24;;;;;;;3.87;1.97;;;20.40;66.80;;;;;;4995064;28;20046;-62
2022/10/05 01:10:09;;;;;;;4.80;2.08;;;20.40;66.80;;;;;;4978250;28;20042;-63
2022/10/05 01:12:59;;;;;;;3.08;1.75;;;20.40;66.80;;;;;;4977592;28;20517;-63
2022/10/05 01:15:30;;;;;;;4.47;2.05;;;20.40;66.80;;;;;;4977986;28;20050;-63
2022/10/05 01:17:58;;;;;;;4.63;2.15;;;20.40;66.90;;;;;;4978372;28;20081;-62
2022/10/05 01:20:39;;;;;;;3.67;2.03;;;20.40;66.80;;;;;;4961108;28;20133;-62
2022/10/05 01:23:22;;;;;;;4.78;2.22;;;20.40;66.80;;;;;;4995580;28;20047;-63
2022/10/05 01:26:09;;;;;;;3.58;2.05;;;20.40;66.80;;;;;;4978557;28;20080;-63
2022/10/05 01:28:45;;;;;;;4.22;2.03;;;20.40;66.80;;;;;;4978672;28;20050;-63
2022/10/05 01:31:21;;;;;;;4.43;2.10;;;20.40;66.80;;;;;;4962858;28;20406;-63
2022/10/05 01:33:57;;;;;;;5.28;2.17;;;20.40;66.80;;;;;;4994547;28;20483;-63
2022/10/05 01:36:31;;;;;;;3.80;2.17;;;20.40;66.80;;;;;;4962617;28;20046;-63
2022/10/05 01:39:02;;;;;;;3.60;2.10;;;20.40;66.80;;;;;;4995596;28;20042;-63
2022/10/05 01:41:31;;;;;;;4.18;2.00;;;20.40;66.80;;;;;;4994025;28;20117;-63
2022/10/05 01:43:56;;;;;;;;;;;20.40;66.80;;;;;;4978387;28;20050;-63
2022/10/05 01:46:37;;;;;;;4.93;2.05;;;20.40;66.80;;;;;;4995120;28;19968;-63
2022/10/05 01:49:05;;;;;;;4.45;1.90;;;20.40;66.90;;;;;;4994300;28;20141;-63
2022/10/05 01:51:37;;;;;;;4.28;2.30;;;20.30;66.80;;;;;;4995213;28;20042;-63
2022/10/05 01:54:21;;;;;;;3.63;1.75;;;20.30;66.80;;;;;;4995327;28;20050;-63
2022/10/05 01:57:11;;;;;;;4.38;1.98;;;20.30;66.80;;;;;;4977983;28;20046;-63
2022/10/05 02:00:06;;;;;;;3.58;2.20;;;20.30;66.80;;;;;;4977701;28;20043;-63
2022/10/05 02:02:35;;;;;;;2.92;1.90;;;20.30;67.00;;;;;;4991795;28;20447;-63
2022/10/05 02:05:07;;;;;;;3.20;1.83;;;20.30;66.80;;;;;;4957683;28;20046;-63
2022/10/05 02:07:39;;;;;;;5.22;2.05;;;20.30;66.80;;;;;;4975273;28;20039;-63
2022/10/05 02:10:17;;;;;;;4.07;1.90;;;20.30;66.80;;;;;;4957374;28;20046;-63
2022/10/05 02:12:42;;;;;;;2.47;1.77;;;20.30;66.80;;;;;;4957945;28;20491;-63
2022/10/05 02:15:13;;;;;;;4.13;2.22;;;20.30;66.80;;;;;;4957619;28;20057;-63
2022/10/05 02:17:44;;;;;;;4.70;2.05;;;20.30;66.80;;;;;;4957645;28;20047;-63
2022/10/05 02:20:11;;;;;;;4.45;2.00;;;20.30;66.80;;;;;;4973658;28;20097;-63
2022/10/05 02:22:38;;;;;;;4.03;2.20;;;20.30;66.80;;;;;;4956921;28;20050;-63
2022/10/05 02:25:08;;;;;;;3.00;1.83;;;20.30;66.90;;;;;;4975230;28;20043;-63
2022/10/05 02:27:37;;;;;;;3.55;1.92;;;20.30;67.40;;;;;;4957857;28;20049;-63
2022/10/05 02:30:05;;;;;;;3.20;1.80;;;20.30;66.80;;;;;;4957145;28;20108;-63
2022/10/05 02:32:43;;;;;;;5.10;2.17;;;20.30;66.80;;;;;;4957588;28;20466;-63
2022/10/05 02:35:15;;;;;;;;;;;20.30;66.90;;;;;;4957665;28;20532;-63
2022/10/05 02:38:05;;;;;;;3.70;2.08;;;20.30;66.80;;;;;;4974207;28;20016;-63
2022/10/05 02:40:45;;;;;;;2.78;1.92;;;20.30;66.90;;;;;;4974608;28;20062;-63
2022/10/05 02:43:44;;;;;;;2.95;1.83;;;20.30;66.90;;;;;;4957367;28;20122;-63
2022/10/05 02:46:28;;;;;;;4.25;2.17;;;20.30;66.90;;;;;;4957355;28;20509;-63
2022/10/05 02:49:13;;;;;;;3.08;1.90;;;20.30;66.90;;;;;;4974568;28;20055;-63
2022/10/05 02:51:43;;;;;;;3.13;1.80;;;20.30;66.90;;;;;;4958449;28;20050;-63
2022/10/05 02:54:24;;;;;;;3.53;2.10;;;20.30;66.90;;;;;;4957378;28;20110;-62
2022/10/05 02:57:26;;;;;;;3.83;2.00;;;20.30;66.90;;;;;;4958316;28;20046;-63
2022/10/05 02:59:54;;;;;;;3.65;2.03;;;20.30;66.90;;;;;;4958190;28;20106;-63
2022/10/05 03:02:38;;;;;;;3.80;1.83;;;20.30;66.90;;;;;;4974076;28;20078;-63
2022/10/05 03:05:25;;;;;;;3.65;2.00;;;20.30;67.00;;;;;;4958031;28;20125;-63
2022/10/05 03:08:00;;;;;;;3.10;2.08;;;20.30;66.90;;;;;;4957204;28;20057;-63
2022/10/05 03:10:33;;;;;;;3.30;1.92;;;20.20;66.90;;;;;;4956747;28;20138;-63
2022/10/05 03:13:04;;;;;;;3.75;2.00;;;20.20;66.90;;;;;;4956562;28;20130;-63
2022/10/05 03:15:33;;;;;;;3.33;1.95;;;20.20;66.90;;;;;;4956616;28;20395;-63
2022/10/05 03:18:20;;;;;;;3.65;2.00;;;20.20;66.90;;;;;;4974363;28;20046;-63
2022/10/05 03:21:17;;;;;;;3.15;1.83;;;20.20;66.90;;;;;;4973402;28;20054;-63
2022/10/05 03:23:59;;;;;;;3.97;2.05;;;20.20;66.90;;;;;;4942936;28;20129;-63
2022/10/05 03:26:37;;;;;;;3.35;1.80;;;20.20;66.90;;;;;;4956889;28;20061;-63
2022/10/05 03:29:14;;;;;;;5.68;2.38;;;20.20;67.60;;;;;;4958247;28;20043;-63
2022/10/05 03:32:11;;;;;;;2.88;1.73;;;20.20;67.00;;;;;;4957822;28;20550;-63
2022/10/05 03:34:59;;;;;;;3.63;2.13;;;20.20;66.90;;;;;;4952748;28;20086;-63
2022/10/05 03:37:32;;;;;;;2.87;2.00;;;20.20;66.90;;;;;;4956266;28;20406;-63
2022/10/05 03:40:19;;;;;;;2.55;1.70;;;20.20;67.00;;;;;;4973413;28;20801;-63
2022/10/05 03:42:59;;;;;;;3.03;1.83;;;20.20;67.00;;;;;;4956906;28;20050;-63
2022/10/05 03:45:47;;;;;;;2.47;1.88;;;20.20;67.00;;;;;;4973547;28;20134;-63
2022/10/05 03:48:32;;;;;;;4.20;1.85;;;20.20;66.90;;;;;;4955406;28;20110;-63
2022/10/05 03:51:01;;;;;;;2.83;1.90;;;20.20;67.00;;;;;;4956868;28;20051;-63
2022/10/05 03:53:29;;;;;;;3.60;1.80;;;20.20;67.00;;;;;;4956187;28;20055;-63
2022/10/05 03:56:08;;;;;;;3.60;2.38;;;20.20;67.00;;;;;;4973118;28;20121;-63
2022/10/05 03:58:56;;;;;;;4.45;2.10;;;20.20;67.00;;;;;;4956594;28;20057;-63
2022/10/05 04:01:24;;;;;;;2.80;1.90;;;20.20;67.00;;;;;;4955508;28;20043;-63
2022/10/05 04:03:53;;;;;;;3.80;1.98;;;20.20;67.00;;;;;;4956655;28;20051;-63
2022/10/05 04:06:25;;;;;;;2.70;1.80;;;20.20;67.00;;;;;;4955368;28;20046;-63
2022/10/05 04:09:15;;;;;;;3.08;2.10;;;20.20;67.00;;;;;;4954542;28;20055;-63
2022/10/05 04:11:54;;;;;;;3.75;2.03;;;20.10;66.90;;;;;;4951351;28;20061;-62
2022/10/05 04:14:35;;;;;;;3.17;1.95;;;20.20;67.00;;;;;;4956183;28;20046;-63
2022/10/05 04:17:21;;;;;;;4.38;2.25;;;20.20;67.00;;;;;;4955279;28;20055;-63
2022/10/05 04:20:24;;;;;;;3.03;2.00;;;20.20;67.00;;;;;;4973357;28;20055;-63
2022/10/05 04:22:57;;;;;;;3.08;1.80;;;20.10;67.00;;;;;;4943968;28;20525;-63
2022/10/05 04:25:24;;;;;;;2.63;2.00;;;20.10;67.00;;;;;;4955682;28;20499;-62
2022/10/05 04:27:53;;;;;;;3.28;2.00;;;20.10;67.00;;;;;;4956483;28;20117;-63
2022/10/05 04:30:21;;;;;;;3.75;1.85;;;20.10;67.00;;;;;;4955341;28;20130;-63
2022/10/05 04:32:56;;;;;;;3.55;1.92;;;20.10;67.00;;;;;;4973256;28;20093;-63
2022/10/05 04:35:33;;;;;;;3.60;2.00;;;20.20;67.00;;;;;;4974600;28;20054;-62
2022/10/05 04:38:20;;;;;;;4.72;2.13;;;20.10;67.00;;;;;;4976371;28;20058;-63
2022/10/05 04:40:49;;;;;;;4.93;2.17;;;20.10;67.00;;;;;;4976979;28;20055;-63
2022/10/05 04:43:45;;;;;;;3.53;2.00;;;20.10;67.00;;;;;;4958891;28;20046;-63
2022/10/05 04:46:17;;;;;;;2.85;2.00;;;20.10;67.00;;;;;;4959520;28;20047;-63
2022/10/05 04:49:11;;;;;;;2.90;1.98;;;20.10;67.10;;;;;;4976695;28;20062;-63
2022/10/05 04:51:56;;;;;;;2.78;1.90;;;20.10;67.00;;;;;;4959011;28;20050;-63
2022/10/05 04:54:46;;;;;;;4.00;2.10;;;20.10;67.10;;;;;;4959341;28;20083;-63
2022/10/05 04:57:43;;;;;;;3.67;1.95;;;20.10;67.00;;;;;;4975797;28;20050;-63
2022/10/05 05:00:21;;;;;;;3.53;1.98;;;20.10;67.10;;;;;;4980808;28;20171;-63
2022/10/05 05:03:07;;;;;;;;;;;20.10;67.10;;;;;;4996431;28;20090;-63
2022/10/05 05:05:54;;;;;;;3.45;1.92;;;20.10;67.00;;;;;;4955129;28;19969;-63
2022/10/05 05:08:50;;;;;;;2.72;1.90;;;20.10;67.20;;;;;;4978154;28;20410;-63
2022/10/05 05:11:28;;;;;;;3.22;1.77;;;20.10;67.10;;;;;;4980581;28;20046;-63
2022/10/05 05:14:06;;;;;;;4.05;2.40;;;20.00;67.10;;;;;;4995777;28;20050;-63
2022/10/05 05:16:36;;;;;;;2.60;1.60;;;20.10;67.20;;;;;;4978505;28;20053;-63
2022/10/05 05:19:13;;;;;;;2.78;1.73;;;20.10;67.10;;;;;;4978451;28;20046;-63
2022/10/05 05:21:52;;;;;;;3.88;2.03;;;20.00;67.10;;;;;;4978408;28;20048;-63
2022/10/05 05:24:39;;;;;;;4.22;2.30;;;20.00;67.10;;;;;;4978116;28;20066;-63
2022/10/05 05:27:36;;;;;;;4.40;2.15;;;20.00;67.00;;;;;;4994903;28;20056;-62
2022/10/05 05:30:07;;;;;;;4.25;2.13;;;20.10;67.10;;;;;;4978130;28;20038;-62
2022/10/05 05:32:56;;;;;;;3.10;1.98;;;20.00;67.10;;;;;;4994789;28;20121;-63
2022/10/05 05:35:22;;;;;;;3.15;2.00;;;20.10;67.10;;;;;;4995221;28;20074;-63
2022/10/05 05:38:12;;;;;;;2.97;1.83;;;20.00;67.10;;;;;;4995550;28;20426;-63
2022/10/05 05:40:49;;;;;;;2.65;1.90;;;20.10;67.10;;;;;;4994616;28;20042;-63
2022/10/05 05:43:25;;;;;;;2.90;2.22;;;20.00;67.10;;;;;;4977682;28;20129;-63
2022/10/05 05:46:00;;;;;;;2.97;2.10;;;20.00;67.00;;;;;;4978340;28;20129;-63
2022/10/05 05:48:30;;;;;;;5.03;1.88;;;20.00;67.10;;;;;;4976610;28;20858;-63
2022/10/05 05:51:36;;;;;;;3.53;2.40;;;20.00;67.10;;;;;;4978404;28;20101;-63
2022/10/05 05:54:25;;;;;;;3.08;1.90;;;20.00;67.00;;;;;;4994546;28;20050;-63
2022/10/05 05:57:28;;;;;;;2.92;1.92;;;20.00;67.10;;;;;;4995093;28;20050;-63
2022/10/05 06:00:12;;;;;;;4.05;2.38;;;20.00;67.00;;;;;;4900165;29;20110;-62
2022/10/05 06:02:59;;;;;;;3.05;2.00;;;20.00;67.10;;;;;;4988517;28;20510;-63
2022/10/05 06:05:39;;;;;;;3.90;2.00;;;20.00;67.10;;;;;;4977315;28;20048;-63
2022/10/05 06:08:26;;;;;;;4.20;2.13;;;20.00;67.10;;;;;;4976684;28;20046;-63
2022/10/05 06:10:55;;;;;;;4.22;2.25;;;20.00;67.10;;;;;;4994619;28;20054;-63
2022/10/05 06:13:27;;;;;;;4.38;2.00;;;20.00;67.10;;;;;;4977511;28;20486;-63
2022/10/05 06:15:56;;;;;;;3.22;2.05;;;20.00;67.10;;;;;;4977004;28;20047;-63
2022/10/05 06:18:22;;;;;;;3.45;2.20;;;20.00;67.10;;;;;;4977586;28;20133;-63
2022/10/05 06:21:00;;;;;;;3.28;2.20;;;20.00;67.10;;;;;;4977371;28;20137;-63
2022/10/05 06:23:53;;;;;;;3.75;2.20;;;20.00;67.20;;;;;;4977503;28;20042;-63
2022/10/05 06:26:19;;;;;;;3.67;2.05;;;20.00;67.10;;;;;;4968968;28;20058;-63
2022/10/05 06:28:52;;;;;;;3.17;2.28;;;20.00;67.20;;;;;;4993968;28;20100;-63
2022/10/05 06:31:58;;;;;;;3.63;2.22;;;20.00;67.20;;;;;;4977760;28;20042;-65
2022/10/05 06:34:40;;;;;;;3.67;2.20;;;20.00;67.20;;;;;;4922524;29;20047;-63
2022/10/05 06:37:11;;;;;;;4.53;2.30;;;20.00;67.20;;;;;;4973607;28;20120;-63
2022/10/05 06:40:25;;;;;;;4.40;2.63;;;20.00;67.20;;;;;;4977431;28;20050;-67
2022/10/05 06:43:14;;;;;;;4.25;2.25;;;20.00;67.30;;;;;;4972111;28;20054;-63
2022/10/05 06:45:53;;;;;;;6.03;2.30;;;20.00;67.40;;;;;;4981049;28;20080;-65
2022/10/05 06:48:25;;;;;;;4.15;2.03;;;20.00;67.40;;;;;;4977235;28;20065;-63
2022/10/05 06:50:54;;;;;;;6.30;2.60;;;20.10;67.50;;;;;;4976426;28;20403;-63
2022/10/05 06:53:26;;;;;;;5.30;2.70;;;20.10;67.70;;;;;;4976547;28;20054;-63
2022/10/05 06:56:08;;;;;;;4.97;2.78;;;20.10;67.90;;;;;;4993721;28;20044;-63
2022/10/05 06:59:04;;;;;;;6.30;2.40;;;20.10;68.00;;;;;;4992093;28;20458;-64
2022/10/05 07:01:53;;;;;;;7.55;2.55;;;20.20;68.10;;;;;;4975687;28;20406;-62
2022/10/05 07:04:24;;;;;;;7.43;2.70;;;20.20;68.00;;;;;;4977868;28;20398;-63
2022/10/05 07:06:54;;;;;;;6.88;2.33;;;20.20;68.10;;;;;;4993791;28;20042;-63
2022/10/05 07:09:34;;;;;;;3.53;2.20;;;20.20;68.10;;;;;;4975373;28;20049;-63
2022/10/05 07:12:34;;;;;;;6.07;2.85;;;20.20;68.10;;;;;;4992371;28;20498;-63
2022/10/05 07:15:38;;;;;;;3.67;2.30;;;20.20;68.10;;;;;;4992880;28;20061;-63
2022/10/05 07:18:27;;;;;;;4.38;2.30;;;20.30;68.20;;;;;;4977842;28;20046;-63
2022/10/05 07:21:08;;;;;;;4.47;2.33;;;20.30;68.20;;;;;;4978995;28;20050;-63
2022/10/05 07:24:11;;;;;;;6.03;2.17;;;20.30;68.20;;;;;;4978026;28;20046;-63
2022/10/05 07:26:43;;;;;;;6.20;2.38;;;20.30;68.20;;;;;;4992466;28;20490;-62
2022/10/05 07:29:26;;;;;;;6.13;2.28;;;20.40;68.30;;;;;;4976114;28;20128;-63
2022/10/05 07:31:58;;;;;;;3.40;2.30;;;20.30;68.20;;;;;;4975498;28;20379;-63
2022/10/05 07:34:34;;;;;;;3.90;2.47;;;20.40;68.20;;;;;;4992891;28;20051;-64
2022/10/05 07:40:02;;;;;;;5.50;2.20;;;20.40;68.30;;;;;;4978033;28;20056;-62
2022/10/05 07:42:44;;;;;;;4.03;2.65;;;20.40;68.30;;;;;;4992882;28;20047;-62
2022/10/05 07:45:45;;;;;;;3.50;2.38;;;20.30;68.20;;;;;;4975682;28;20050;-62
2022/10/05 07:48:25;;;;;;;6.38;2.75;;;20.40;68.20;;;;;;4970372;28;20498;-62
2022/10/05 07:51:12;;;;;;;3.70;2.35;;;20.40;68.20;;;;;;4976745;28;20376;-62
2022/10/05 07:53:39;;;;;;;8.45;2.70;;;20.40;68.10;;;;;;4992345;28;20042;-62
2022/10/05 07:56:14;;;;;;;4.78;2.50;;;20.40;68.20;;;;;;4975465;28;20046;-62
2022/10/05 07:58:43;;;;;;;6.35;2.40;;;20.30;68.10;;;;;;4976436;28;20050;-62
2022/10/05 08:01:26;;;;;;;4.60;2.30;;;20.40;68.10;;;;;;4958421;28;20042;-62
2022/10/05 08:03:55;;;;;;;4.47;2.58;;;20.40;68.10;;;;;;4976627;28;20104;-62
2022/10/05 08:06:36;;;;;;;4.57;2.40;;;20.40;68.00;;;;;;4975393;28;20046;-62
2022/10/05 08:09:27;;;;;;;3.88;2.20;;;20.40;68.00;;;;;;4992330;28;20129;-62
2022/10/05 08:12:13;;;;;;;4.32;2.15;;;20.40;68.00;;;;;;4997012;28;20153;-62
2022/10/05 08:15:10;;;;;;;4.35;2.15;;;20.40;68.10;;;;;;4978567;28;20054;-62
2022/10/05 08:17:59;;;;;;;4.45;2.15;;;20.40;68.00;;;;;;4986498;28;20058;-62
2022/10/05 08:20:37;;;;;;;4.53;2.38;;;20.40;68.00;;;;;;4979934;28;20042;-62
2022/10/05 08:23:18;;;;;;;3.17;2.10;;;20.40;68.00;;;;;;4978929;28;20054;-62
2022/10/05 08:25:51;;;;;;;4.60;2.22;;;20.40;67.90;;;;;;4996727;28;20058;-62
2022/10/05 08:28:24;;;;;;;4.60;2.10;;;20.40;67.90;;;;;;4995643;28;20497;-61
2022/10/05 08:31:00;;;;;;;3.45;2.38;;;20.40;67.90;;;;;;4980024;28;20042;-62
2022/10/05 08:33:26;;;;;;;6.57;2.33;;;20.40;67.90;;;;;;4979088;28;21026;-62
2022/10/05 08:36:10;;;;;;;4.75;2.15;;;20.40;67.90;;;;;;4978494;28;20510;-62
2022/10/05 08:38:36;;;;;;;3.85;2.55;;;20.40;67.90;;;;;;4979202;28;20084;-62
2022/10/05 08:41:23;;;;;;;6.00;2.80;;;20.40;67.90;;;;;;4978882;28;20133;-61
2022/10/05 08:44:03;;;;;;;5.38;2.35;;;20.40;67.90;;;;;;4995618;28;20513;-62
2022/10/05 08:46:33;;;;;;;5.05;2.42;;;20.40;67.90;;;;;;4996127;28;20046;-62
2022/10/05 08:49:20;;;;;;;3.45;2.15;;;20.40;67.90;;;;;;4975543;28;20062;-62
2022/10/05 08:52:04;;;;;;;4.30;2.17;;;20.40;67.70;;;;;;4975607;28;20442;-62
2022/10/05 08:54:39;;;;;;;5.15;2.20;;;20.40;67.70;;;;;;4976769;28;20102;-62
2022/10/05 08:57:30;;;;;;;2.90;2.05;;;20.40;67.70;;;;;;4975885;28;20102;-62
2022/10/05 09:00:12;;;;;;;3.63;2.05;;;20.50;67.70;;;;;;4975495;28;20510;-62
2022/10/05 09:02:52;;;;;;;5.97;2.53;;;20.50;67.70;;;;;;4975643;28;20057;-62
2022/10/05 09:05:42;;;;;;;3.80;2.15;;;20.50;67.70;;;;;;4975444;28;20505;-62
2022/10/05 09:08:56;;;;;;;5.43;2.20;;;20.50;67.70;;;;;;4976090;28;20445;-61
2022/10/05 09:11:33;;;;;;;5.13;2.40;;;20.50;67.70;;;;;;4962204;28;20081;-62
2022/10/05 09:14:05;;;;;;;2.65;1.77;;;20.50;67.70;;;;;;4975556;28;20089;-62
2022/10/05 09:16:50;;;;;;;4.55;2.35;;;20.50;68.30;;;;;;4976372;28;20134;-62
2022/10/05 09:19:43;;;;;;;3.92;2.15;;;20.50;67.60;;;;;;4974254;28;20047;-62
2022/10/05 09:22:14;;;;;;;4.50;2.45;;;20.50;67.50;;;;;;4975053;28;20097;-62
2022/10/05 09:24:56;;;;;;;4.15;2.17;;;20.50;67.50;;;;;;4975426;28;20047;-62
2022/10/05 09:27:34;;;;;;;4.72;2.38;;;20.50;67.50;;;;;;4974723;28;20129;-62
2022/10/05 09:30:16;;;;;;;4.40;2.05;;;20.50;67.40;;;;;;4975389;28;20074;-62
2022/10/05 09:33:00;;;;;;;4.47;1.98;;;20.50;67.40;;;;;;4974230;28;20062;-62
2022/10/05 09:35:57;;;;;;;2.80;1.83;;;20.60;67.40;;;;;;4975988;28;20050;-62
2022/10/05 09:38:54;;;;;;;3.15;1.85;;;20.50;67.40;;;;;;4975716;28;20064;-62
2022/10/05 09:41:46;;;;;;;3.00;2.10;;;20.60;67.40;;;;;;4974709;28;20103;-62
2022/10/05 09:44:39;;;;;;;3.95;2.10;;;20.50;67.30;;;;;;4975523;28;20051;-62
2022/10/05 09:47:28;;;;;;;4.35;1.90;;;20.50;67.30;;;;;;4977356;28;20102;-61
2022/10/05 09:50:02;;;;;;;4.38;2.25;;;20.60;67.30;;;;;;4978432;28;20133;-63
2022/10/05 09:53:08;;;;;;;4.95;2.30;;;20.50;67.30;;;;;;4994327;28;20077;-62
2022/10/05 09:55:46;;;;;;;3.03;1.88;;;20.60;66.90;;;;;;4980347;28;20042;-62
2022/10/05 09:58:43;;;;;;;5.15;2.40;;;20.50;66.80;;;;;;4976535;28;20049;-62
2022/10/05 10:01:30;;;;;;;6.30;2.20;;;20.50;66.50;;;;;;4974624;28;20054;-62
2022/10/05 10:04:25;;;;;;;5.47;2.45;;;20.50;66.40;;;;;;4975613;28;20051;-62
2022/10/05 10:07:09;;;;;;;4.88;2.30;;;20.50;66.30;;;;;;4973740;28;20042;-62
2022/10/05 10:10:04;;;;;;;5.32;1.88;;;20.50;66.20;;;;;;4975465;28;20051;-62
2022/10/05 10:13:04;;;;;;;4.28;1.98;;;20.50;66.10;;;;;;4974856;28;20126;-62
2022/10/05 10:15:44;;;;;;;5.93;2.10;;;20.50;66.20;;;;;;4969463;28;20134;-62
2022/10/05 10:18:16;;;;;;;4.20;2.10;;;20.50;66.50;;;;;;4973730;28;20552;-62
2022/10/05 10:20:50;;;;;;;4.10;1.77;;;20.50;66.80;;;;;;4973507;28;20059;-62
2022/10/05 10:23:58;;;;;;;5.13;2.10;;;20.50;67.10;;;;;;4973501;28;20038;-61
2022/10/05 10:26:30;;;;;;;3.28;2.15;;;20.50;67.20;;;;;;4974576;28;20101;-62
2022/10/05 10:29:38;;;;;;;5.65;2.00;;;20.60;67.30;;;;;;4974108;28;20431;-61
2022/10/05 10:32:48;;;;;;;4.30;1.90;;;20.50;67.10;;;;;;4971876;28;20097;-61
2022/10/05 10:35:29;;;;;;;4.40;2.13;;;20.60;67.00;;;;;;4972844;28;20043;-62
2022/10/05 10:38:19;;;;;;;3.72;2.00;;;20.60;67.10;;;;;;4974829;28;20502;-62
2022/10/05 10:41:03;;;;;;;5.03;2.03;;;20.60;67.10;;;;;;4974779;28;20487;-61
2022/10/05 10:44:06;;;;;;;4.85;2.00;;;20.50;67.00;;;;;;4973759;28;20483;-62
2022/10/05 10:46:38;;;;;;;5.13;1.75;;;20.60;67.10;;;;;;4992308;28;20034;-61
2022/10/05 10:49:33;;;;;;;4.97;1.88;;;20.60;67.10;;;;;;4975945;28;20054;-62
2022/10/05 10:52:27;;;;;;;4.22;1.90;;;20.60;67.30;;;;;;4978290;28;20490;-62
2022/10/05 10:55:30;;;;;;;3.03;1.88;;;20.60;67.40;;;;;;4976063;28;20046;-62
2022/10/05 10:57:56;;;;;;;2.95;1.90;;;20.60;67.40;;;;;;4991830;28;20070;-62
2022/10/05 11:00:56;;;;;;;3.97;1.80;;;20.60;67.40;;;;;;4991888;28;20088;-62
2022/10/05 11:03:44;;;;;;;3.28;1.80;;;20.60;67.40;;;;;;4975632;28;20042;-62
2022/10/05 11:06:22;;;;;;;6.70;1.75;;;20.70;67.50;;;;;;4977631;28;20057;-62
2022/10/05 11:09:08;;;;;;;5.85;2.10;;;20.70;67.40;;;;;;4993324;28;20062;-62
2022/10/05 11:11:49;;;;;;;7.43;1.90;;;20.70;67.30;;;;;;4975390;28;20478;-62
2022/10/05 11:14:24;;;;;;;3.13;1.60;;;20.70;67.20;;;;;;4993284;28;20051;-62
2022/10/05 11:17:15;;;;;;;3.42;1.75;;;20.70;67.20;;;;;;4976544;28;20153;-62
2022/10/05 11:19:43;;;;;;;3.60;1.70;;;20.70;67.10;;;;;;4978792;28;20050;-62
2022/10/05 11:22:25;;;;;;;3.95;1.70;;;20.70;67.20;;;;;;4993132;28;20050;-62
2022/10/05 11:25:24;;;;;;;3.13;1.67;;;20.70;67.10;;;;;;4975503;28;20050;-62
2022/10/05 11:28:12;;;;;;;5.47;2.13;;;20.70;67.00;;;;;;4977796;28;20054;-62
2022/10/05 11:30:57;;;;;;;;;;;20.60;67.00;;;;;;4994134;28;20078;-62
2022/10/05 11:33:51;;;;;;;4.03;1.92;;;20.70;67.00;;;;;;4992685;28;19922;-62
2022/10/05 11:36:50;;;;;;;3.45;1.83;;;20.70;67.10;;;;;;4993187;28;20093;-62
2022/10/05 11:39:46;;;;;;;5.03;2.00;;;20.70;67.00;;;;;;4992528;28;20104;-62
2022/10/05 11:42:38;;;;;;;6.47;1.75;;;20.70;67.00;;;;;;4992942;28;20038;-62
2022/10/05 11:45:21;;;;;;;4.00;1.80;;;20.70;67.10;;;;;;4991942;28;20046;-62
2022/10/05 11:48:09;;;;;;;2.65;1.70;;;20.70;67.00;;;;;;4976946;28;20066;-62
2022/10/05 11:50:37;;;;;;;4.27;1.83;;;20.70;67.00;;;;;;4993421;28;20046;-62
2022/10/05 11:53:14;;;;;;;;;;;20.60;67.00;;;;;;4992610;28;20535;-62
2022/10/05 11:55:59;;;;;;;2.83;1.70;;;20.70;66.90;;;;;;4993433;28;19922;-62
2022/10/05 11:58:36;;;;;;;4.03;1.70;;;20.60;67.00;;;;;;4992926;28;20475;-62
2022/10/05 12:01:21;;;;;;;3.20;1.70;;;20.70;67.00;;;;;;4992527;28;20109;-62
2022/10/05 12:03:59;;;;;;;3.28;1.70;;;20.70;67.00;;;;;;4976412;28;20414;-62
2022/10/05 12:06:47;;;;;;;3.30;1.60;;;20.70;66.90;;;;;;4974991;28;20137;-62
2022/10/05 12:09:23;;;;;;;2.63;1.38;;;20.60;66.80;;;;;;4993041;28;20046;-62
2022/10/05 12:12:10;;;;;;;3.42;1.80;;;20.70;66.90;;;;;;4975709;28;20042;-62
2022/10/05 12:15:07;;;;;;;5.95;1.80;;;20.70;66.90;;;;;;4974999;28;20068;-62
2022/10/05 12:17:59;;;;;;;2.88;1.75;;;20.60;66.90;;;;;;4975924;28;20122;-62
2022/10/05 12:20:30;;;;;;;3.92;1.60;;;20.60;66.90;;;;;;4976775;28;20053;-62
2022/10/05 12:23:16;;;;;;;2.53;1.52;;;20.60;66.90;;;;;;4993198;28;20042;-62
2022/10/05 12:25:49;;;;;;;2.83;1.83;;;20.60;66.90;;;;;;4977525;28;20049;-62
2022/10/05 12:28:21;;;;;;;1.80;1.20;;;20.60;66.90;;;;;;4975297;28;20042;-62
2022/10/05 12:30:56;;;;;;;3.08;1.52;;;20.60;66.90;;;;;;4976278;28;20046;-62
2022/10/05 12:33:37;;;;;;;2.95;1.55;;;20.50;66.90;;;;;;4992766;28;20096;-62
2022/10/05 12:36:13;;;;;;;4.40;1.88;;;20.60;66.90;;;;;;4992037;28;20050;-62
2022/10/05 12:39:03;;;;;;;2.53;1.50;;;20.60;67.00;;;;;;4976742;28;20081;-62
2022/10/05 12:41:40;;;;;;;3.72;1.60;;;20.60;67.00;;;;;;4975167;28;20050;-62
2022/10/05 12:44:40;;;;;;;4.53;1.58;;;20.60;67.00;;;;;;4992709;28;20043;-62
2022/10/05 12:47:06;;;;;;;4.78;1.80;;;20.60;66.90;;;;;;4940199;28;20072;-62
2022/10/05 12:49:49;;;;;;;4.22;1.55;;;20.60;67.10;;;;;;4991934;28;20054;-62
2022/10/05 12:53:07;;;;;;;3.58;1.77;;;20.50;66.90;;;;;;4975199;28;20046;-62
2022/10/05 12:55:52;;;;;;;3.13;1.55;;;20.50;67.00;;;;;;4968906;28;20077;-63
2022/10/05 12:58:40;;;;;;;2.15;1.15;;;20.50;67.00;;;;;;4994768;28;20576;-63
2022/10/05 13:01:18;;;;;;;;;;;20.50;67.10;;;;;;4996272;28;20463;-62
2022/10/05 13:04:02;;;;;;;5.88;1.67;;;20.50;67.00;;;;;;4995357;28;20412;-62
2022/10/05 13:06:35;;;;;;;2.78;1.30;;;20.50;67.10;;;;;;4995653;28;20477;-62
2022/10/05 13:09:24;;;;;;;3.15;1.40;;;20.50;67.10;;;;;;4996183;28;20042;-62
2022/10/05 13:11:51;;;;;;;2.97;1.60;;;20.50;67.20;;;;;;4977728;28;20453;-62
2022/10/05 13:14:34;;;;;;;2.53;1.38;;;20.50;67.10;;;;;;4996110;28;20129;-62
2022/10/05 13:17:17;;;;;;;2.28;1.42;;;20.50;67.10;;;;;;4979644;28;20041;-62
2022/10/05 13:19:50;;;;;;;3.42;1.38;;;20.50;67.10;;;;;;4980889;28;20483;-62
2022/10/05 13:22:26;;;;;;;3.33;1.65;;;20.50;67.10;;;;;;4979072;28;20050;-62
2022/10/05 13:25:01;;;;;;;2.10;1.58;;;20.50;67.10;;;;;;4977311;28;20507;-62
2022/10/05 13:27:34;;;;;;;3.28;1.50;;;20.50;67.10;;;;;;4978488;28;20108;-62
2022/10/05 13:30:18;;;;;;;2.67;1.40;;;20.60;67.20;;;;;;4978969;28;20053;-62
2022/10/05 13:32:57;;;;;;;3.45;1.50;;;20.50;67.10;;;;;;4994846;28;20067;-62
2022/10/05 13:35:40;;;;;;;;;;;20.50;67.10;;;;;;4978952;28;20056;-62
2022/10/05 13:38:12;;;;;;;2.53;1.60;;;20.50;67.10;;;;;;4994641;28;19922;-62
2022/10/05 13:40:48;;;;;;;4.10;1.55;;;20.50;67.10;;;;;;4995615;28;20096;-62
2022/10/05 13:43:13;;;;;;;4.35;1.55;;;20.50;67.10;;;;;;4977841;28;20077;-64
2022/10/05 13:45:55;;;;;;;2.92;1.30;;;20.50;67.10;;;;;;4994505;28;20073;-62
2022/10/05 13:48:45;;;;;;;2.50;1.40;;;20.60;67.10;;;;;;4978109;28;20054;-62
2022/10/05 13:51:28;;;;;;;2.58;1.20;;;20.50;67.20;;;;;;4977488;28;20046;-62
2022/10/05 13:54:03;;;;;;;2.88;1.40;;;20.50;67.10;;;;;;4978841;28;20050;-62
2022/10/05 13:56:30;;;;;;;3.90;1.70;;;20.50;67.10;;;;;;4978138;28;20050;-62
2022/10/05 13:59:04;;;;;;;4.15;1.45;;;20.60;67.20;;;;;;4960954;28;20403;-62
2022/10/05 14:01:57;;;;;;;4.53;1.40;;;20.50;67.10;;;;;;4977792;28;20046;-62